Time;durP1;ratioP1;P1;durP2;ratioP2;P2;SDS_P1;SDS_P2;PMS_P1;PMS_P2;Temp;Humidity;BMP_temperature;BMP_pressure;BME280_temperature;BME280_humidity;BME280_pressure;Samples;Min_cycle;Max_cycle;Signal;HPM_P1;HPM_P2
2020/12/07 00:02:22;;;;;;;4.70;4.33;;;6.60;47.50;;;;;;5051941;28;20195;-65
2020/12/07 00:04:48;;;;;;;4.07;3.77;;;6.70;46.20;;;;;;5052173;28;20699;-66
2020/12/07 00:07:13;;;;;;;3.80;3.57;;;6.70;46.80;;;;;;5051612;28;20407;-65
2020/12/07 00:09:39;;;;;;;3.30;3.07;;;6.70;46.60;;;;;;5050287;28;20204;-66
2020/12/07 00:12:04;;;;;;;3.57;3.37;;;6.80;45.10;;;;;;5051822;28;20238;-65
2020/12/07 00:14:30;;;;;;;3.73;3.43;;;6.60;45.70;;;;;;5052013;28;20180;-63
2020/12/07 00:16:55;;;;;;;4.73;4.40;;;6.30;47.10;;;;;;5051907;28;20172;-65
2020/12/07 00:19:21;;;;;;;3.97;3.67;;;6.60;47.20;;;;;;5051716;28;20179;-65
2020/12/07 00:21:46;;;;;;;4.97;4.57;;;6.80;46.30;;;;;;5052050;28;20241;-65
2020/12/07 00:24:12;;;;;;;4.00;3.70;;;6.50;45.90;;;;;;5051730;28;20221;-65
2020/12/07 00:26:37;;;;;;;4.00;3.70;;;6.50;46.80;;;;;;5051828;28;20183;-66
2020/12/07 00:29:04;;;;;;;3.53;3.33;;;6.50;46.80;;;;;;5051595;28;20183;-64
2020/12/07 00:31:29;;;;;;;3.70;3.50;;;6.60;47.20;;;;;;5051727;28;20440;-66
2020/12/07 00:33:58;;;;;;;2.70;2.50;;;6.60;45.30;;;;;;5051655;28;20491;-64
2020/12/07 00:36:25;;;;;;;3.70;3.50;;;6.60;45.90;;;;;;5051726;28;20172;-66
2020/12/07 00:38:51;;;;;;;3.50;3.30;;;6.80;46.40;;;;;;5051432;28;20408;-64
2020/12/07 00:41:21;;;;;;;5.00;4.60;;;6.90;46.00;;;;;;5051483;28;20413;-64
2020/12/07 00:43:47;;;;;;;3.73;3.53;;;6.80;44.90;;;;;;5051601;28;20406;-65
2020/12/07 00:46:12;;;;;;;4.23;3.93;;;6.50;46.60;;;;;;5051457;28;20450;-65
2020/12/07 00:48:38;;;;;;;4.20;3.80;;;6.60;46.10;;;;;;5051290;28;20744;-66
2020/12/07 00:51:03;;;;;;;3.87;3.57;;;6.80;46.00;;;;;;5051489;28;20241;-62
2020/12/07 00:53:29;;;;;;;3.93;3.63;;;6.90;45.40;;;;;;5051545;28;20228;-65
2020/12/07 00:55:54;;;;;;;3.80;3.50;;;6.30;46.10;;;;;;5051415;28;20171;-64
2020/12/07 00:58:20;;;;;;;3.33;3.07;;;6.10;48.30;;;;;;5051229;28;20269;-64
2020/12/07 01:00:45;;;;;;;3.97;3.70;;;6.40;48.60;;;;;;5051187;28;20299;-67
2020/12/07 01:03:11;;;;;;;3.70;3.40;;;6.30;47.40;;;;;;5050685;28;20241;-64
2020/12/07 01:05:36;;;;;;;3.50;3.30;;;6.30;48.00;;;;;;5051284;28;20257;-64
2020/12/07 01:08:01;;;;;;;3.43;3.23;;;6.40;47.90;;;;;;5051010;28;20310;-63
2020/12/07 01:10:27;;;;;;;3.70;3.50;;;6.40;47.10;;;;;;5051177;28;20212;-66
2020/12/07 01:12:52;;;;;;;3.33;3.13;;;6.20;48.30;;;;;;5051062;28;20190;-66
2020/12/07 01:15:18;;;;;;;3.60;3.30;;;6.00;48.10;;;;;;5050958;28;20198;-64
2020/12/07 01:17:43;;;;;;;3.80;3.50;;;6.20;48.60;;;;;;5050807;28;20238;-65
2020/12/07 01:20:09;;;;;;;3.60;3.40;;;6.50;47.40;;;;;;5050922;28;20186;-65
2020/12/07 01:22:35;;;;;;;3.40;3.20;;;6.30;47.40;;;;;;5050747;28;20677;-64
2020/12/07 01:25:02;;;;;;;3.20;3.00;;;6.10;48.00;;;;;;5050969;28;20467;-65
2020/12/07 01:27:28;;;;;;;3.20;3.00;;;6.10;48.40;;;;;;5050769;28;20229;-65
2020/12/07 01:29:53;;;;;;;3.00;2.80;;;6.00;49.10;;;;;;5050664;28;20457;-65
2020/12/07 01:32:19;;;;;;;3.33;3.13;;;5.70;49.50;;;;;;5050755;28;20246;-65
2020/12/07 01:34:45;;;;;;;3.07;2.87;;;6.00;49.10;;;;;;5050725;28;20172;-65
2020/12/07 01:37:10;;;;;;;3.00;2.80;;;6.30;48.30;;;;;;5050795;28;20183;-66
2020/12/07 01:39:36;;;;;;;3.50;3.23;;;6.30;47.70;;;;;;5050771;28;20410;-65
2020/12/07 01:42:01;;;;;;;3.23;3.03;;;6.30;47.70;;;;;;5050672;28;20657;-66
2020/12/07 01:44:27;;;;;;;3.07;2.87;;;6.50;47.50;;;;;;5050597;28;20175;-66
2020/12/07 01:46:52;;;;;;;3.20;2.77;;;6.60;46.90;;;;;;5050676;28;20175;-66
2020/12/07 01:49:18;;;;;;;3.30;3.10;;;6.60;47.00;;;;;;5050439;28;20194;-65
2020/12/07 01:51:44;;;;;;;3.20;3.00;;;6.50;47.00;;;;;;5050542;28;20184;-65
2020/12/07 01:54:09;;;;;;;3.00;2.80;;;6.60;46.90;;;;;;5050625;28;20263;-64
2020/12/07 01:56:36;;;;;;;2.90;2.70;;;6.60;46.80;;;;;;5050621;28;20903;-64
2020/12/07 01:59:02;;;;;;;3.30;2.80;;;6.50;46.80;;;;;;5050423;28;20629;-65
2020/12/07 02:01:29;;;;;;;2.70;2.60;;;6.50;46.80;;;;;;5050560;28;20422;-65
2020/12/07 02:03:55;;;;;;;3.17;2.97;;;6.60;46.70;;;;;;5050576;28;20404;-65
2020/12/07 02:06:20;;;;;;;3.00;2.80;;;6.60;46.40;;;;;;5050553;28;20420;-65
2020/12/07 02:08:50;;;;;;;3.00;2.87;;;6.40;46.50;;;;;;5050229;28;20185;-65
2020/12/07 02:11:17;;;;;;;3.00;2.80;;;6.40;47.00;;;;;;5050364;28;20236;-66
2020/12/07 02:13:43;;;;;;;3.77;3.50;;;6.40;47.10;;;;;;5052675;28;20406;-64
2020/12/07 02:16:09;;;;;;;3.30;3.10;;;6.50;47.10;;;;;;5054556;28;20458;-64
2020/12/07 02:18:34;;;;;;;4.57;3.70;;;6.10;47.60;;;;;;5054315;28;20496;-65
2020/12/07 02:21:00;;;;;;;3.90;3.67;;;6.10;48.60;;;;;;5054221;28;20666;-64
2020/12/07 02:23:25;;;;;;;4.10;3.80;;;6.20;47.70;;;;;;5054238;28;20657;-64
2020/12/07 02:25:51;;;;;;;3.73;3.50;;;6.40;48.00;;;;;;5054153;28;20175;-66
2020/12/07 02:28:16;;;;;;;4.00;3.80;;;6.40;47.30;;;;;;5053756;28;20182;-65
2020/12/07 02:30:42;;;;;;;4.40;4.07;;;6.20;47.60;;;;;;5054026;28;20203;-65
2020/12/07 02:33:07;;;;;;;4.07;3.27;;;6.30;47.30;;;;;;5053967;28;20556;-65
2020/12/07 02:35:33;;;;;;;4.17;3.90;;;6.50;47.90;;;;;;5053942;28;20182;-65
2020/12/07 02:37:58;;;;;;;3.00;2.87;;;6.50;47.10;;;;;;5053765;28;20176;-65
2020/12/07 02:40:24;;;;;;;3.90;3.60;;;6.40;46.80;;;;;;5053883;28;20210;-65
2020/12/07 02:42:49;;;;;;;4.07;3.77;;;6.40;47.10;;;;;;5053673;28;20689;-65
2020/12/07 02:45:16;;;;;;;3.50;3.30;;;6.40;47.20;;;;;;5053807;28;20208;-65
2020/12/07 02:47:43;;;;;;;3.87;3.57;;;6.50;47.70;;;;;;5053578;28;20175;-64
2020/12/07 02:50:10;;;;;;;3.17;2.97;;;6.60;47.20;;;;;;5053618;28;20453;-64
2020/12/07 02:52:36;;;;;;;3.10;2.90;;;6.70;46.70;;;;;;5053582;28;20926;-65
2020/12/07 02:55:10;;;;;;;3.40;3.20;;;6.60;48.90;;;;;;5053643;28;20456;-66
2020/12/07 02:57:37;;;;;;;4.27;4.03;;;6.70;47.00;;;;;;5053270;28;20448;-65
2020/12/07 03:00:07;;;;;;;3.33;3.13;;;6.70;47.20;;;;;;5053554;28;20421;-64
2020/12/07 03:02:35;;;;;;;3.33;3.13;;;6.50;47.50;;;;;;5052203;28;20445;-65
2020/12/07 03:05:01;;;;;;;3.50;3.30;;;6.60;47.40;;;;;;5053500;28;20921;-64
2020/12/07 03:07:26;;;;;;;4.67;4.37;;;6.30;48.20;;;;;;5053345;28;20417;-65
2020/12/07 03:09:52;;;;;;;3.03;2.90;;;6.40;49.40;;;;;;5053195;28;20452;-66
2020/12/07 03:12:17;;;;;;;3.30;3.10;;;6.40;48.30;;;;;;5053147;28;20186;-66
2020/12/07 03:14:43;;;;;;;3.60;3.40;;;6.30;48.70;;;;;;5053278;28;20194;-65
2020/12/07 03:17:09;;;;;;;3.20;3.00;;;6.40;48.60;;;;;;5053074;28;20234;-65
2020/12/07 03:19:35;;;;;;;4.10;3.80;;;6.10;49.10;;;;;;5053280;28;20657;-63
2020/12/07 03:22:00;;;;;;;4.03;3.77;;;6.10;49.60;;;;;;5053130;28;20470;-65
2020/12/07 03:24:26;;;;;;;3.90;3.60;;;6.00;50.20;;;;;;5052145;28;20273;-65
2020/12/07 03:26:51;;;;;;;3.40;3.20;;;6.00;49.70;;;;;;5052969;28;20190;-63
2020/12/07 03:29:17;;;;;;;4.00;3.80;;;5.80;50.40;;;;;;5052768;28;20242;-65
2020/12/07 03:31:42;;;;;;;4.10;3.80;;;6.00;50.60;;;;;;5052888;28;20184;-64
2020/12/07 03:34:09;;;;;;;3.70;3.50;;;6.00;50.20;;;;;;5052972;28;20185;-65
2020/12/07 03:36:35;;;;;;;3.60;3.40;;;6.00;50.30;;;;;;5052910;28;20251;-65
2020/12/07 03:39:01;;;;;;;3.63;3.43;;;6.20;49.20;;;;;;5052634;28;21038;-65
2020/12/07 03:41:27;;;;;;;3.43;3.23;;;6.30;49.40;;;;;;5052613;28;20613;-65
2020/12/07 03:43:53;;;;;;;3.30;3.10;;;6.40;48.80;;;;;;5052690;28;20412;-67
2020/12/07 03:46:18;;;;;;;3.27;3.07;;;6.30;49.30;;;;;;5052751;28;20221;-66
2020/12/07 03:48:44;;;;;;;3.63;3.43;;;6.00;49.80;;;;;;5051186;28;20422;-64
2020/12/07 03:51:09;;;;;;;3.43;3.17;;;6.00;50.20;;;;;;5052441;28;20286;-64
2020/12/07 03:53:38;;;;;;;3.30;3.10;;;6.00;50.50;;;;;;5052466;28;20258;-65
2020/12/07 03:56:07;;;;;;;3.50;3.20;;;6.10;49.60;;;;;;5052346;28;20176;-65
2020/12/07 03:58:33;;;;;;;3.20;2.97;;;6.10;50.10;;;;;;5052208;28;20443;-64
2020/12/07 04:00:59;;;;;;;3.33;3.13;;;6.20;49.20;;;;;;5052470;28;20442;-65
2020/12/07 04:03:26;;;;;;;3.00;2.80;;;6.40;49.10;;;;;;5052203;28;20807;-66
2020/12/07 04:06:14;;;;;;;3.20;3.00;;;6.40;49.40;;;;;;5052275;28;20679;-65
2020/12/07 04:08:40;;;;;;;3.83;3.63;;;6.40;49.40;;;;;;5052067;28;20943;-64
2020/12/07 04:11:05;;;;;;;3.40;3.20;;;6.30;48.00;;;;;;5051904;28;20533;-64
2020/12/07 04:13:32;;;;;;;3.53;3.33;;;6.20;48.80;;;;;;5052161;28;20181;-65
2020/12/07 04:15:57;;;;;;;3.67;3.47;;;5.90;49.00;;;;;;5052147;28;20179;-65
2020/12/07 04:18:23;;;;;;;3.80;3.60;;;6.00;50.20;;;;;;5051846;28;20400;-65
2020/12/07 04:20:49;;;;;;;3.30;3.10;;;6.00;49.50;;;;;;5051925;28;20537;-65
2020/12/07 04:23:15;;;;;;;3.60;3.40;;;6.10;49.50;;;;;;5051687;28;20265;-65
2020/12/07 04:25:40;;;;;;;3.47;3.27;;;5.70;50.40;;;;;;5052008;28;20995;-64
2020/12/07 04:28:06;;;;;;;2.90;2.80;;;5.70;50.70;;;;;;5051697;28;20176;-65
2020/12/07 04:30:31;;;;;;;3.80;3.60;;;5.80;51.80;;;;;;5051643;28;20200;-65
2020/12/07 04:32:57;;;;;;;4.17;3.97;;;5.90;50.10;;;;;;5051610;28;20230;-65
2020/12/07 04:35:23;;;;;;;3.60;3.40;;;6.00;50.80;;;;;;5051576;28;20492;-65
2020/12/07 04:37:48;;;;;;;2.77;2.60;;;6.10;49.40;;;;;;5050560;28;20178;-65
2020/12/07 04:40:14;;;;;;;3.77;3.50;;;6.20;49.30;;;;;;5051494;28;20172;-65
2020/12/07 04:42:40;;;;;;;3.23;3.03;;;6.20;49.20;;;;;;5051593;28;20202;-66
2020/12/07 04:45:06;;;;;;;2.70;2.60;;;6.20;48.80;;;;;;5051620;28;20229;-64
2020/12/07 04:47:34;;;;;;;3.50;3.20;;;6.30;49.30;;;;;;5051259;28;20503;-64
2020/12/07 04:50:03;;;;;;;3.43;3.23;;;6.60;48.40;;;;;;5051404;28;20456;-65
2020/12/07 04:52:29;;;;;;;3.73;3.30;;;6.60;47.50;;;;;;5051325;28;20432;-65
2020/12/07 04:54:56;;;;;;;3.60;3.40;;;6.80;47.30;;;;;;5051221;28;20402;-65
2020/12/07 04:57:22;;;;;;;3.73;3.43;;;6.80;47.60;;;;;;5051016;28;20183;-66
2020/12/07 04:59:49;;;;;;;3.80;3.60;;;6.70;48.00;;;;;;5051143;28;20425;-64
2020/12/07 05:02:15;;;;;;;3.23;3.00;;;6.60;47.50;;;;;;5051147;28;20439;-65
2020/12/07 05:04:41;;;;;;;3.00;2.80;;;6.80;47.40;;;;;;5051150;28;20770;-65
2020/12/07 05:07:10;;;;;;;3.37;3.17;;;7.00;47.20;;;;;;5050920;28;20177;-66
2020/12/07 05:09:37;;;;;;;3.30;3.10;;;7.10;45.10;;;;;;5051013;28;20230;-64
2020/12/07 05:12:07;;;;;;;3.00;2.80;;;6.90;46.80;;;;;;5050979;28;20473;-66
2020/12/07 05:14:33;;;;;;;3.50;3.30;;;6.90;46.30;;;;;;5051161;28;20413;-64
2020/12/07 05:16:59;;;;;;;3.67;3.47;;;6.90;46.10;;;;;;5050841;28;20419;-64
2020/12/07 05:19:25;;;;;;;3.80;3.60;;;7.00;46.80;;;;;;5050916;28;20736;-64
2020/12/07 05:21:51;;;;;;;4.17;3.83;;;7.00;46.40;;;;;;5050879;28;20791;-64
2020/12/07 05:24:17;;;;;;;3.77;3.47;;;7.10;46.40;;;;;;5050709;28;20426;-64
2020/12/07 05:26:43;;;;;;;3.57;3.33;;;6.90;46.80;;;;;;5050826;28;20211;-64
2020/12/07 05:29:17;;;;;;;4.00;3.80;;;7.00;46.80;;;;;;5050615;28;20489;-65
2020/12/07 05:31:43;;;;;;;4.27;3.97;;;6.90;46.80;;;;;;5050651;28;20436;-62
2020/12/07 05:34:08;;;;;;;4.20;3.90;;;6.90;47.10;;;;;;5050683;28;20801;-64
2020/12/07 05:36:34;;;;;;;4.73;4.43;;;6.80;47.40;;;;;;5050637;28;20410;-64
2020/12/07 05:39:01;;;;;;;4.10;3.80;;;6.80;46.20;;;;;;5050462;28;20176;-64
2020/12/07 05:41:29;;;;;;;4.23;3.97;;;6.90;47.60;;;;;;5050680;28;20727;-64
2020/12/07 05:43:55;;;;;;;4.60;4.23;;;7.10;46.30;;;;;;5050586;28;20411;-63
2020/12/07 05:46:27;;;;;;;4.30;4.00;;;7.10;46.20;;;;;;5050554;28;20505;-64
2020/12/07 05:48:54;;;;;;;3.97;3.77;;;7.00;46.80;;;;;;5053380;28;20172;-64
2020/12/07 05:51:25;;;;;;;4.20;4.00;;;7.00;46.70;;;;;;5054479;28;20457;-65
2020/12/07 05:53:51;;;;;;;4.60;4.17;;;7.30;46.50;;;;;;5054640;28;20429;-65
2020/12/07 05:56:17;;;;;;;4.47;4.17;;;7.20;46.50;;;;;;5054686;28;20443;-65
2020/12/07 05:59:03;;;;;;;4.33;4.00;;;6.90;46.20;;;;;;5054325;28;20413;-65
2020/12/07 06:01:30;;;;;;;4.40;4.10;;;7.30;46.30;;;;;;5054748;28;20998;-64
2020/12/07 06:03:56;;;;;;;4.57;4.20;;;7.40;46.20;;;;;;5054300;28;20768;-65
2020/12/07 06:06:33;;;;;;;5.87;5.27;;;7.40;45.10;;;;;;5054424;28;20403;-65
2020/12/07 06:09:07;;;;;;;4.50;4.20;;;7.40;45.90;;;;;;5054158;28;20912;-66
2020/12/07 06:11:46;;;;;;;12.73;10.17;;;7.30;45.90;;;;;;5054100;28;20437;-65
2020/12/07 06:14:13;;;;;;;3.70;3.40;;;7.00;46.30;;;;;;5049784;28;20916;-65
2020/12/07 06:16:42;;;;;;;4.27;3.97;;;7.00;46.30;;;;;;5053855;28;20410;-64
2020/12/07 06:19:15;;;;;;;4.90;4.43;;;7.00;47.40;;;;;;5053311;28;20456;-66
2020/12/07 06:21:50;;;;;;;4.40;4.10;;;7.30;46.60;;;;;;5053550;28;20433;-64
2020/12/07 06:24:15;;;;;;;4.80;4.40;;;7.40;45.90;;;;;;5053358;28;20483;-63
2020/12/07 06:26:41;;;;;;;7.53;6.87;;;7.40;45.80;;;;;;5053723;28;20403;-64
2020/12/07 06:29:06;;;;;;;5.30;4.93;;;7.40;45.30;;;;;;5052038;28;20172;-65
2020/12/07 06:31:36;;;;;;;4.10;3.80;;;7.40;45.60;;;;;;5052113;28;20192;-64
2020/12/07 06:34:09;;;;;;;4.30;4.00;;;7.50;45.30;;;;;;5053307;28;20175;-64
2020/12/07 06:36:38;;;;;;;5.17;4.87;;;7.30;45.00;;;;;;5053887;28;20402;-65
2020/12/07 06:39:09;;;;;;;4.60;4.30;;;7.40;45.80;;;;;;5052986;28;20417;-66
2020/12/07 06:41:38;;;;;;;4.57;4.17;;;7.20;44.90;;;;;;5053390;28;20495;-66
2020/12/07 06:44:11;;;;;;;4.77;4.37;;;7.20;45.90;;;;;;5053332;28;20483;-63
2020/12/07 06:47:04;;;;;;;4.90;4.57;;;7.30;45.80;;;;;;5052907;28;20417;-65
2020/12/07 06:52:28;;;;;;;4.80;4.17;;;7.20;45.40;;;;;;5053408;28;20437;-64
2020/12/07 06:55:23;;;;;;;4.27;3.97;;;7.50;52.30;;;;;;5052852;28;20402;-64
2020/12/07 06:57:51;;;;;;;5.20;4.70;;;8.10;53.50;;;;;;5063589;28;20874;-63
2020/12/07 07:00:22;;;;;;;5.60;4.37;;;9.50;57.40;;;;;;5071998;28;20390;-64
2020/12/07 07:02:49;;;;;;;5.13;4.70;;;10.60;50.90;;;;;;5072881;28;20425;-66
2020/12/07 07:05:16;;;;;;;5.20;4.60;;;10.90;42.40;;;;;;5073218;28;20413;-64
2020/12/07 07:07:42;;;;;;;4.37;3.97;;;10.20;41.80;;;;;;5073139;28;20451;-64
2020/12/07 07:10:10;;;;;;;4.70;4.30;;;9.80;42.40;;;;;;5072789;28;20928;-66
2020/12/07 07:12:36;;;;;;;5.27;4.77;;;9.60;46.80;;;;;;5073237;28;20195;-65
2020/12/07 07:15:04;;;;;;;6.10;5.50;;;9.20;39.00;;;;;;5073216;28;20800;-66
2020/12/07 07:17:33;;;;;;;5.30;4.90;;;9.00;39.30;;;;;;5072852;28;20437;-66
2020/12/07 07:20:00;;;;;;;5.63;5.13;;;8.70;41.50;;;;;;5071668;28;20792;-65
2020/12/07 07:22:26;;;;;;;5.60;5.13;;;8.50;41.30;;;;;;5072651;28;20461;-65
2020/12/07 07:25:19;;;;;;;6.00;5.60;;;8.40;41.70;;;;;;5072127;28;20440;-65
2020/12/07 07:28:03;;;;;;;6.93;6.23;;;8.50;41.30;;;;;;5072961;28;20506;-64
2020/12/07 07:30:29;;;;;;;6.60;6.10;;;8.20;41.10;;;;;;5073031;28;20939;-70
2020/12/07 07:32:56;;;;;;;10.10;9.20;;;8.30;42.30;;;;;;5072614;28;20433;-65
2020/12/07 07:35:32;;;;;;;7.37;6.63;;;8.00;41.70;;;;;;5072550;28;20958;-70
2020/12/07 07:37:58;;;;;;;5.80;5.40;;;8.00;42.40;;;;;;5052925;28;20885;-68
2020/12/07 07:40:27;;;;;;;6.07;5.57;;;7.90;42.40;;;;;;5052913;28;20811;-67
2020/12/07 07:43:04;;;;;;;7.43;6.83;;;8.10;42.70;;;;;;5053577;28;20423;-67
2020/12/07 07:45:35;;;;;;;6.20;5.60;;;8.00;42.00;;;;;;5054723;28;21039;-67
2020/12/07 07:48:16;;;;;;;6.47;6.07;;;8.00;43.20;;;;;;5061175;28;20417;-68
2020/12/07 07:51:14;;;;;;;6.00;5.50;;;7.90;43.00;;;;;;5072459;28;20535;-70
2020/12/07 08:02:32;;;;;;;5.93;5.53;;;7.70;44.20;;;;;;5079495;28;20426;-67
2020/12/07 08:15:49;;;;;;;5.07;4.70;;;7.60;43.30;;;;;;5072127;28;20397;-71
2020/12/07 08:18:20;;;;;;;5.67;5.27;;;7.50;44.10;;;;;;5071983;28;20742;-71
2020/12/07 08:20:52;;;;;;;5.77;5.37;;;7.70;45.00;;;;;;5071943;28;20402;-68
2020/12/07 08:23:26;;;;;;;5.80;5.30;;;7.50;43.70;;;;;;5071589;28;20441;-68
2020/12/07 08:25:52;;;;;;;5.50;5.10;;;7.40;44.30;;;;;;5087546;28;20466;-70
2020/12/07 08:28:26;;;;;;;7.17;5.37;;;7.30;45.60;;;;;;5071662;28;20398;-70
2020/12/07 08:31:01;;;;;;;5.17;4.67;;;7.30;46.10;;;;;;5071429;28;20502;-70
2020/12/07 08:33:28;;;;;;;6.37;5.90;;;7.60;45.50;;;;;;5071776;28;20768;-69
2020/12/07 08:35:55;;;;;;;6.10;5.60;;;7.40;45.60;;;;;;5071362;28;20405;-72
2020/12/07 08:38:33;;;;;;;7.90;5.53;;;7.60;45.60;;;;;;5071731;28;20405;-69
2020/12/07 08:41:03;;;;;;;6.37;5.17;;;7.70;44.60;;;;;;5072273;28;20413;-66
2020/12/07 08:43:28;;;;;;;5.60;5.20;;;7.40;44.80;;;;;;5072185;28;20428;-67
2020/12/07 08:45:54;;;;;;;5.83;5.33;;;7.20;45.60;;;;;;5072602;28;20410;-69
2020/12/07 08:48:19;;;;;;;5.60;5.00;;;7.10;46.10;;;;;;5071975;28;20357;-67
2020/12/07 08:50:45;;;;;;;6.00;5.17;;;7.10;46.50;;;;;;5075807;28;20206;-66
2020/12/07 08:53:10;;;;;;;5.90;5.50;;;7.10;46.60;;;;;;5071337;28;20201;-67
2020/12/07 08:55:36;;;;;;;6.43;5.57;;;7.10;46.30;;;;;;5072026;28;20181;-67
2020/12/07 08:58:01;;;;;;;4.70;4.30;;;7.10;46.60;;;;;;5071521;28;20171;-68
2020/12/07 09:00:27;;;;;;;5.70;5.20;;;6.70;46.90;;;;;;5071555;28;20259;-64
2020/12/07 09:02:52;;;;;;;5.10;4.70;;;6.60;48.10;;;;;;5072195;28;20206;-68
2020/12/07 09:05:18;;;;;;;4.80;4.50;;;7.00;47.70;;;;;;5075287;28;20209;-68
2020/12/07 09:07:44;;;;;;;4.83;4.53;;;7.20;46.50;;;;;;5073082;28;20193;-65
2020/12/07 09:10:09;;;;;;;5.00;4.60;;;7.00;46.40;;;;;;5076761;28;20216;-65
2020/12/07 09:12:36;;;;;;;6.03;5.53;;;7.00;47.10;;;;;;5072051;28;20448;-69
2020/12/07 09:15:01;;;;;;;5.60;5.20;;;7.20;46.50;;;;;;5071947;28;20260;-68
2020/12/07 09:17:27;;;;;;;5.67;5.27;;;7.30;45.70;;;;;;5070754;28;20530;-68
2020/12/07 09:19:52;;;;;;;4.47;4.13;;;7.10;46.20;;;;;;5070750;28;20204;-68
2020/12/07 09:22:18;;;;;;;6.20;4.53;;;7.00;46.00;;;;;;5070208;28;20206;-68
2020/12/07 09:24:43;;;;;;;5.97;5.50;;;7.20;46.50;;;;;;5070603;28;20198;-67
2020/12/07 09:27:09;;;;;;;5.10;4.80;;;7.50;45.90;;;;;;5087346;28;20241;-68
2020/12/07 09:29:34;;;;;;;5.83;5.33;;;7.30;45.00;;;;;;5092825;28;20657;-70
2020/12/07 09:32:00;;;;;;;5.27;4.57;;;7.20;45.90;;;;;;5090997;28;20194;-67
2020/12/07 09:34:25;;;;;;;5.23;4.83;;;7.30;45.30;;;;;;5090990;28;20185;-66
2020/12/07 09:36:51;;;;;;;5.47;4.97;;;7.50;45.50;;;;;;5090933;28;20165;-67
2020/12/07 09:39:16;;;;;;;5.57;5.17;;;7.40;45.30;;;;;;5090663;28;20169;-67
2020/12/07 09:41:42;;;;;;;4.90;4.50;;;7.70;45.40;;;;;;5090647;28;20183;-67
2020/12/07 09:44:07;;;;;;;4.27;3.97;;;7.90;44.40;;;;;;5091113;28;20171;-67
2020/12/07 09:46:33;;;;;;;4.93;4.27;;;7.70;43.90;;;;;;5081172;28;20537;-67
2020/12/07 09:48:58;;;;;;;6.30;5.70;;;7.80;44.40;;;;;;5070542;28;20178;-68
2020/12/07 09:51:24;;;;;;;4.57;4.27;;;7.60;44.30;;;;;;5073232;28;20476;-68
2020/12/07 09:53:49;;;;;;;5.20;4.80;;;7.70;44.80;;;;;;5074785;28;20583;-70
2020/12/07 09:56:15;;;;;;;4.63;4.33;;;7.90;44.90;;;;;;5072532;28;20249;-69
2020/12/07 09:58:41;;;;;;;4.70;4.40;;;8.10;44.20;;;;;;5070735;28;20637;-69
2020/12/07 10:01:06;;;;;;;4.97;4.57;;;7.90;43.30;;;;;;5072807;28;20224;-68
2020/12/07 10:03:32;;;;;;;4.77;4.37;;;7.70;43.70;;;;;;5075941;28;20217;-69
2020/12/07 10:05:57;;;;;;;5.40;5.00;;;7.50;44.80;;;;;;5071981;28;20172;-71
2020/12/07 10:08:23;;;;;;;4.30;4.00;;;7.70;44.80;;;;;;5070268;28;20174;-70
2020/12/07 10:10:48;;;;;;;4.70;4.30;;;7.70;44.40;;;;;;5069643;28;20217;-69
2020/12/07 10:13:14;;;;;;;4.17;3.87;;;7.80;44.60;;;;;;5070342;28;20883;-72
2020/12/07 10:15:39;;;;;;;4.70;4.40;;;7.90;44.00;;;;;;5070317;28;20167;-70
2020/12/07 10:18:05;;;;;;;5.07;4.67;;;7.90;43.80;;;;;;5070232;28;20254;-68
2020/12/07 10:20:30;;;;;;;5.50;4.60;;;7.90;44.80;;;;;;5070019;28;20549;-68
2020/12/07 10:22:56;;;;;;;5.50;5.10;;;8.00;43.50;;;;;;5070319;28;20213;-69
2020/12/07 10:25:21;;;;;;;4.77;4.37;;;7.90;44.40;;;;;;5070199;28;20179;-70
2020/12/07 10:27:47;;;;;;;4.60;4.30;;;7.90;43.40;;;;;;5070023;28;20175;-68
2020/12/07 10:30:12;;;;;;;4.43;4.03;;;7.90;44.50;;;;;;5070132;28;20261;-69
2020/12/07 10:32:38;;;;;;;5.43;4.90;;;7.90;43.00;;;;;;5070265;28;20236;-72
2020/12/07 10:35:03;;;;;;;4.80;4.50;;;7.90;42.80;;;;;;5072857;28;20328;-71
2020/12/07 10:37:29;;;;;;;4.67;4.37;;;7.80;42.60;;;;;;5072756;28;20237;-72
2020/12/07 10:39:54;;;;;;;9.40;6.30;;;7.90;43.00;;;;;;5064079;28;20351;-69
2020/12/07 10:42:20;;;;;;;4.93;4.47;;;8.10;43.00;;;;;;5064043;28;20551;-70
2020/12/07 10:44:46;;;;;;;4.93;4.63;;;8.20;43.60;;;;;;5066002;28;20684;-68
2020/12/07 10:47:11;;;;;;;28.33;26.23;;;8.00;43.00;;;;;;5070667;28;20183;-67
2020/12/07 10:49:37;;;;;;;5.23;4.80;;;8.10;42.10;;;;;;5072982;28;20702;-68
2020/12/07 10:52:02;;;;;;;5.60;5.20;;;8.20;43.20;;;;;;5073446;28;20188;-67
2020/12/07 10:54:28;;;;;;;7.80;5.47;;;8.40;41.40;;;;;;5073283;28;20217;-68
2020/12/07 10:56:53;;;;;;;4.77;4.40;;;8.30;41.30;;;;;;5072832;28;20221;-67
2020/12/07 10:59:19;;;;;;;5.60;5.10;;;8.20;42.00;;;;;;5073165;28;20556;-68
2020/12/07 11:01:45;;;;;;;5.60;5.20;;;8.20;42.70;;;;;;5073106;28;20229;-68
2020/12/07 11:04:10;;;;;;;4.93;4.53;;;8.30;42.00;;;;;;5073403;28;20172;-67
2020/12/07 11:06:41;;;;;;;5.17;4.77;;;8.30;42.00;;;;;;5073428;28;20695;-68
2020/12/07 11:09:09;;;;;;;4.53;4.23;;;8.30;41.10;;;;;;5072981;28;20171;-67
2020/12/07 11:11:35;;;;;;;4.70;4.40;;;8.40;41.30;;;;;;5073171;28;20468;-69
2020/12/07 11:14:00;;;;;;;5.47;4.90;;;8.50;40.60;;;;;;5073346;28;20433;-70
2020/12/07 11:16:26;;;;;;;7.10;6.60;;;8.10;41.00;;;;;;5073717;28;20787;-67
2020/12/07 11:18:52;;;;;;;5.37;4.10;;;8.10;41.00;;;;;;5073341;28;20524;-69
2020/12/07 11:21:18;;;;;;;4.20;3.90;;;7.80;42.20;;;;;;5073538;28;20176;-68
2020/12/07 11:23:46;;;;;;;5.17;4.77;;;7.90;42.40;;;;;;5073469;28;20428;-68
2020/12/07 11:26:13;;;;;;;4.63;4.23;;;8.10;42.80;;;;;;5075165;28;20436;-68
2020/12/07 11:28:39;;;;;;;4.37;4.07;;;8.20;42.00;;;;;;5075540;28;20509;-69
2020/12/07 11:31:07;;;;;;;4.57;4.27;;;8.20;40.80;;;;;;5081897;28;20481;-66
2020/12/07 11:33:32;;;;;;;5.43;5.03;;;8.10;41.30;;;;;;5076505;28;20175;-69
2020/12/07 11:35:58;;;;;;;5.60;5.20;;;8.00;41.80;;;;;;5072759;28;20470;-69
2020/12/07 11:38:26;;;;;;;4.20;3.90;;;7.80;40.80;;;;;;5072495;28;20642;-69
2020/12/07 11:41:41;;;;;;;10.60;4.13;;;7.80;41.70;;;;;;5072741;28;20224;-69
2020/12/07 11:46:31;;;;;;;5.00;4.60;;;7.80;41.60;;;;;;5072166;28;20405;-69
2020/12/07 11:48:57;;;;;;;4.40;4.00;;;7.90;41.90;;;;;;5072046;28;20401;-72
2020/12/07 11:51:26;;;;;;;4.13;3.90;;;7.90;40.90;;;;;;5072718;28;20862;-70
2020/12/07 11:53:54;;;;;;;4.20;3.90;;;7.90;40.80;;;;;;5072357;28;20646;-69
2020/12/07 11:56:36;;;;;;;3.33;3.10;;;8.00;40.90;;;;;;5073309;28;20462;-69
2020/12/07 11:59:03;;;;;;;3.50;3.30;;;8.10;39.30;;;;;;5072183;28;20408;-69
2020/12/07 12:01:32;;;;;;;3.63;3.40;;;8.30;38.10;;;;;;5071958;28;20428;-68
2020/12/07 12:03:58;;;;;;;3.20;3.00;;;8.30;38.20;;;;;;5072428;28;20973;-69
2020/12/07 12:06:26;;;;;;;4.00;3.70;;;8.10;37.30;;;;;;5072005;28;20406;-69
2020/12/07 12:08:53;;;;;;;3.80;3.50;;;8.20;38.40;;;;;;5071787;28;20482;-67
2020/12/07 12:11:19;;;;;;;3.57;3.30;;;8.30;37.70;;;;;;5071818;28;20518;-72
2020/12/07 12:13:45;;;;;;;3.27;3.07;;;8.50;36.90;;;;;;5071847;28;20495;-68
2020/12/07 12:16:13;;;;;;;3.10;2.80;;;8.00;37.90;;;;;;5071714;28;20488;-68
2020/12/07 12:18:38;;;;;;;3.40;3.10;;;7.90;38.10;;;;;;5071560;28;20417;-67
2020/12/07 12:21:05;;;;;;;4.30;4.00;;;7.90;38.20;;;;;;5071856;28;20421;-66
2020/12/07 12:23:30;;;;;;;3.60;3.30;;;7.60;38.90;;;;;;5071633;28;20217;-67
2020/12/07 12:25:56;;;;;;;6.50;3.33;;;7.80;38.80;;;;;;5071789;28;20915;-66
2020/12/07 12:28:22;;;;;;;7.33;4.10;;;7.70;38.80;;;;;;5071417;28;20185;-67
2020/12/07 12:30:47;;;;;;;4.77;3.93;;;7.70;39.10;;;;;;5071614;28;20214;-65
2020/12/07 12:33:14;;;;;;;4.60;4.20;;;7.60;39.40;;;;;;5071528;28;20957;-66
2020/12/07 12:35:39;;;;;;;10.10;4.20;;;7.50;39.70;;;;;;5071688;28;20179;-68
2020/12/07 12:38:05;;;;;;;4.53;4.13;;;7.10;41.20;;;;;;5071290;28;20422;-69
2020/12/07 12:40:30;;;;;;;10.60;9.50;;;7.20;41.20;;;;;;5071401;28;20206;-67
2020/12/07 12:42:56;;;;;;;5.07;4.70;;;7.30;40.90;;;;;;5069835;28;20223;-68
2020/12/07 12:45:21;;;;;;;4.03;3.83;;;7.50;41.50;;;;;;5071399;28;20178;-67
2020/12/07 12:47:46;;;;;;;4.47;4.07;;;7.60;40.50;;;;;;5071174;28;20201;-67
2020/12/07 12:50:12;;;;;;;8.77;4.77;;;7.50;40.50;;;;;;5071216;28;20234;-69
2020/12/07 12:52:38;;;;;;;3.87;3.57;;;7.60;41.20;;;;;;5071164;28;20702;-69
2020/12/07 12:55:04;;;;;;;5.07;4.67;;;7.50;41.20;;;;;;5071186;28;20174;-67
2020/12/07 12:57:30;;;;;;;4.70;4.30;;;7.20;41.70;;;;;;5070046;28;20423;-67
2020/12/07 12:59:55;;;;;;;4.37;4.07;;;7.40;41.70;;;;;;5071405;28;20416;-66
2020/12/07 13:02:21;;;;;;;4.50;4.20;;;7.60;41.10;;;;;;5070964;28;20194;-67
2020/12/07 13:04:46;;;;;;;5.17;4.77;;;7.70;40.30;;;;;;5070987;28;20179;-68
2020/12/07 13:07:12;;;;;;;4.67;4.37;;;8.00;41.00;;;;;;5070970;28;20187;-67
2020/12/07 13:09:37;;;;;;;4.63;4.33;;;8.00;40.90;;;;;;5059471;28;20238;-68
2020/12/07 13:12:03;;;;;;;5.47;5.07;;;8.30;40.00;;;;;;5060556;28;20202;-69
2020/12/07 13:14:29;;;;;;;5.10;4.70;;;8.10;39.70;;;;;;5059132;28;20219;-67
2020/12/07 13:19:30;;;;;;;7.10;5.10;;;8.10;39.00;;;;;;5058028;28;20194;-66
2020/12/07 13:22:15;;;;;;;5.67;4.53;;;7.90;40.10;;;;;;5060088;28;20433;-65
2020/12/07 13:24:53;;;;;;;5.03;4.60;;;8.10;40.10;;;;;;5057175;28;20436;-68
2020/12/07 13:29:50;;;;;;;5.13;4.80;;;8.40;39.30;;;;;;5056537;28;20460;-67